Gwinn, MI

2:41 AM EDT en Octubre 23, 2014 (GMT -0400)
Sawyer International | Change Station
CLOSE
Current Station
Aeropuerto
Location: Gwinn,
Altura: 1220 ft
Estaciones meteorológicas cercanas

Alt 1220 ft 46.34 °N, 87.40 °W | Updated 4 minutes ago

Nublado
Nublado
36 ° F
Sensación térmica 26 ° F
N
16
Viento Variable Viento desde SSO

Hoy
Alta -- | Baja -- ° F
--% Posibilidad de precipitaciones
Ayer
Alta -- | Baja -- ° F
Precip. -- pul
8:18 AM 6:49 PM
Creciente menguante, 0% visible
Presión 30.17 pul
Visibilidad 0.5 Millas
Nubes Nublado 200 ft
Vientos helados 26 ° F
Punto de rocío 35 ° F
Humedad 97%
Precipitaciones 0.00 pul
Espesor de la nieve No disponible.
UV 0 de una escala de 12
Polen .10 de una escala de 12
PM2.5 Buena
Flu Activity Sporadic
METAR KSAW 230637Z AUTO 20014KT 1/2SM FG OVC002 02/02 A3017 RMK AO2 T00220017

More Conditions Fewer Conditions

Presión 30.17 pul
Visibilidad 0.5 Millas
Nubes Nublado 200 ft
Vientos helados 26 ° F
Punto de rocío 35 ° F
Humedad 97%
Precipitaciones 0.00 pul
Espesor de la nieve No disponible.
UV 0 de una escala de 12
Polen .10 de una escala de 12
PM2.5 Buena
Flu Activity Sporadic
METAR KSAW 230637Z AUTO 20014KT 1/2SM FG OVC002 02/02 A3017 RMK AO2 T00220017

More Conditions Fewer Conditions

10-Day Weather Forecast

Almanac

Astronomía

Oct. 23, 2014 Salida Puesta
Hora real 8:18 AM EDT 6:49 PM EDT
Crepúsculo civil 7:47 AM EDT 7:19 PM EDT
Crepúsculo náutico 7:12 AM EDT 7:54 PM EDT
Crepúsculo astronómico 6:37 AM EDT 8:29 PM EDT
Luna 7:56 AM EDT 6:50 PM EDT
Horas de luz 11h 32m
Horas de luz
10h 31m
Tomorrow will be 3m 5s shorter.
Creciente menguante, 0% of the Moon is Illuminated
Hoy
Creciente menguante
Oct 23
Nueva
Oct 30
Cuarto creciente
Nov 6
Luna llena
Nov 14
Cuarto menguante

Extremos de hoy

Máximos del estado Bajos del estado

Community

WunderPhotos

Upload Photos

1,764,194 ¡fotos cargadas!

Nearby

Calidad del aire

  Calidad del aire Índice AQ Contaminante
Ayer Buena
PM2.5
Real Buena
PM2.5
Jueves Buena
PM2.5
Viernes Buena
PM2.5
Sábado Buena
PM2.5
Domingo Buena
PM2.5
Lunes Buena
PM2.5

Grosos de nieve

Estación Profundido Altura
No tenemos constancia de nieve nueva.

Actividad de terremotos

Ciudad Distance Mag. Tiempo y dato
No hay informes recientes de la actividad sísmica.
Magnitud mínima muestra es 2,5.

Temperaturas de aguas costeras

Lugar Temperatura
Port Inland, MI 51.1 ° F

Estaciones meteorológicas cercanas